sensor_id;sensor_type;location;lat;lon;timestamp;P1;durP1;ratioP1;P2;durP2;ratioP2
79399;SDS011;68856;45.586;10.264;2023-09-07T00:00:53;11.55;;;7.00;;
79399;SDS011;68856;45.586;10.264;2023-09-07T00:03:20;7.10;;;6.38;;
79399;SDS011;68856;45.586;10.264;2023-09-07T00:05:47;7.22;;;6.45;;
79399;SDS011;68856;45.586;10.264;2023-09-07T00:08:14;7.90;;;6.05;;
79399;SDS011;68856;45.586;10.264;2023-09-07T00:10:40;11.43;;;6.70;;
79399;SDS011;68856;45.586;10.264;2023-09-07T00:13:07;9.82;;;6.72;;
79399;SDS011;68856;45.586;10.264;2023-09-07T00:15:36;7.65;;;6.40;;
79399;SDS011;68856;45.586;10.264;2023-09-07T00:18:03;7.90;;;6.40;;
79399;SDS011;68856;45.586;10.264;2023-09-07T00:20:30;8.25;;;6.32;;
79399;SDS011;68856;45.586;10.264;2023-09-07T00:22:58;14.15;;;7.13;;
79399;SDS011;68856;45.586;10.264;2023-09-07T00:25:25;8.18;;;6.40;;
79399;SDS011;68856;45.586;10.264;2023-09-07T00:27:52;8.10;;;6.85;;
79399;SDS011;68856;45.586;10.264;2023-09-07T00:30:18;6.68;;;5.97;;
79399;SDS011;68856;45.586;10.264;2023-09-07T00:32:45;9.80;;;7.43;;
79399;SDS011;68856;45.586;10.264;2023-09-07T00:35:11;8.50;;;7.00;;
79399;SDS011;68856;45.586;10.264;2023-09-07T00:37:37;9.55;;;6.57;;
79399;SDS011;68856;45.586;10.264;2023-09-07T00:40:03;9.82;;;6.88;;
79399;SDS011;68856;45.586;10.264;2023-09-07T00:42:34;8.20;;;7.30;;
79399;SDS011;68856;45.586;10.264;2023-09-07T00:45:01;7.07;;;6.30;;
79399;SDS011;68856;45.586;10.264;2023-09-07T00:47:27;9.27;;;6.25;;
79399;SDS011;68856;45.586;10.264;2023-09-07T00:49:54;6.97;;;6.00;;
79399;SDS011;68856;45.586;10.264;2023-09-07T00:52:20;9.70;;;6.30;;
79399;SDS011;68856;45.586;10.264;2023-09-07T00:54:47;8.88;;;6.25;;
79399;SDS011;68856;45.586;10.264;2023-09-07T00:57:14;8.07;;;5.88;;
79399;SDS011;68856;45.586;10.264;2023-09-07T00:59:40;8.77;;;6.43;;
79399;SDS011;68856;45.586;10.264;2023-09-07T01:02:06;6.57;;;5.85;;
79399;SDS011;68856;45.586;10.264;2023-09-07T01:04:33;6.78;;;5.85;;
79399;SDS011;68856;45.586;10.264;2023-09-07T01:07:03;8.07;;;5.97;;
79399;SDS011;68856;45.586;10.264;2023-09-07T01:09:36;8.65;;;5.95;;
79399;SDS011;68856;45.586;10.264;2023-09-07T01:14:38;6.45;;;5.85;;
79399;SDS011;68856;45.586;10.264;2023-09-07T01:17:04;10.50;;;6.80;;
79399;SDS011;68856;45.586;10.264;2023-09-07T01:19:31;7.32;;;6.60;;
79399;SDS011;68856;45.586;10.264;2023-09-07T01:21:58;8.85;;;6.60;;
79399;SDS011;68856;45.586;10.264;2023-09-07T01:24:25;7.15;;;6.18;;
79399;SDS011;68856;45.586;10.264;2023-09-07T01:26:55;13.20;;;6.65;;
79399;SDS011;68856;45.586;10.264;2023-09-07T01:29:22;7.32;;;6.38;;
79399;SDS011;68856;45.586;10.264;2023-09-07T01:31:48;7.57;;;6.50;;
79399;SDS011;68856;45.586;10.264;2023-09-07T01:34:14;7.97;;;6.18;;
79399;SDS011;68856;45.586;10.264;2023-09-07T01:36:41;9.23;;;6.72;;
79399;SDS011;68856;45.586;10.264;2023-09-07T01:39:07;13.52;;;6.78;;
79399;SDS011;68856;45.586;10.264;2023-09-07T01:41:34;10.18;;;6.55;;
79399;SDS011;68856;45.586;10.264;2023-09-07T01:44:00;9.80;;;6.70;;
79399;SDS011;68856;45.586;10.264;2023-09-07T01:46:26;6.75;;;6.10;;
79399;SDS011;68856;45.586;10.264;2023-09-07T01:48:53;9.27;;;6.75;;
79399;SDS011;68856;45.586;10.264;2023-09-07T01:51:19;8.85;;;6.35;;
79399;SDS011;68856;45.586;10.264;2023-09-07T01:53:48;9.43;;;6.07;;
79399;SDS011;68856;45.586;10.264;2023-09-07T01:56:17;8.05;;;6.13;;
79399;SDS011;68856;45.586;10.264;2023-09-07T01:58:44;6.97;;;5.93;;
79399;SDS011;68856;45.586;10.264;2023-09-07T02:01:23;8.93;;;6.35;;
79399;SDS011;68856;45.586;10.264;2023-09-07T02:03:50;8.30;;;6.30;;
79399;SDS011;68856;45.586;10.264;2023-09-07T02:06:17;9.27;;;5.95;;
79399;SDS011;68856;45.586;10.264;2023-09-07T02:08:44;6.28;;;5.60;;
79399;SDS011;68856;45.586;10.264;2023-09-07T02:11:10;7.93;;;5.72;;
79399;SDS011;68856;45.586;10.264;2023-09-07T02:13:36;7.45;;;6.47;;
79399;SDS011;68856;45.586;10.264;2023-09-07T02:16:03;6.93;;;6.07;;
79399;SDS011;68856;45.586;10.264;2023-09-07T02:18:31;6.82;;;5.88;;
79399;SDS011;68856;45.586;10.264;2023-09-07T02:21:01;10.27;;;5.65;;
79399;SDS011;68856;45.586;10.264;2023-09-07T02:23:28;7.35;;;5.80;;
79399;SDS011;68856;45.586;10.264;2023-09-07T02:25:58;7.97;;;5.38;;
79399;SDS011;68856;45.586;10.264;2023-09-07T02:28:25;7.32;;;5.63;;
79399;SDS011;68856;45.586;10.264;2023-09-07T02:30:52;6.22;;;5.63;;
79399;SDS011;68856;45.586;10.264;2023-09-07T02:33:18;7.65;;;6.15;;
79399;SDS011;68856;45.586;10.264;2023-09-07T02:35:45;6.43;;;5.35;;
79399;SDS011;68856;45.586;10.264;2023-09-07T02:38:14;6.22;;;5.57;;
79399;SDS011;68856;45.586;10.264;2023-09-07T02:40:42;6.18;;;5.47;;
79399;SDS011;68856;45.586;10.264;2023-09-07T02:43:09;9.57;;;5.72;;
79399;SDS011;68856;45.586;10.264;2023-09-07T02:45:35;6.35;;;5.53;;
79399;SDS011;68856;45.586;10.264;2023-09-07T02:48:02;7.88;;;5.47;;
79399;SDS011;68856;45.586;10.264;2023-09-07T02:50:30;6.88;;;6.18;;
79399;SDS011;68856;45.586;10.264;2023-09-07T02:53:00;8.65;;;6.50;;
79399;SDS011;68856;45.586;10.264;2023-09-07T02:55:28;8.90;;;5.97;;
79399;SDS011;68856;45.586;10.264;2023-09-07T02:57:55;7.03;;;5.82;;
79399;SDS011;68856;45.586;10.264;2023-09-07T03:00:22;9.38;;;5.78;;
79399;SDS011;68856;45.586;10.264;2023-09-07T03:02:49;5.75;;;5.25;;
79399;SDS011;68856;45.586;10.264;2023-09-07T03:05:15;7.80;;;5.97;;
79399;SDS011;68856;45.586;10.264;2023-09-07T03:07:44;7.40;;;5.43;;
79399;SDS011;68856;45.586;10.264;2023-09-07T03:10:11;6.82;;;5.50;;
79399;SDS011;68856;45.586;10.264;2023-09-07T03:12:38;6.72;;;5.40;;
79399;SDS011;68856;45.586;10.264;2023-09-07T03:15:05;7.45;;;5.50;;
79399;SDS011;68856;45.586;10.264;2023-09-07T03:17:32;7.15;;;6.45;;
79399;SDS011;68856;45.586;10.264;2023-09-07T03:19:58;6.80;;;5.75;;
79399;SDS011;68856;45.586;10.264;2023-09-07T03:22:25;11.68;;;6.20;;
79399;SDS011;68856;45.586;10.264;2023-09-07T03:24:53;8.02;;;5.80;;
79399;SDS011;68856;45.586;10.264;2023-09-07T03:27:19;10.18;;;6.13;;
79399;SDS011;68856;45.586;10.264;2023-09-07T03:29:46;7.20;;;5.30;;
79399;SDS011;68856;45.586;10.264;2023-09-07T03:32:16;7.85;;;5.63;;
79399;SDS011;68856;45.586;10.264;2023-09-07T03:34:42;6.40;;;5.43;;
79399;SDS011;68856;45.586;10.264;2023-09-07T03:37:09;8.40;;;5.50;;
79399;SDS011;68856;45.586;10.264;2023-09-07T03:39:36;7.45;;;5.40;;
79399;SDS011;68856;45.586;10.264;2023-09-07T03:42:03;6.03;;;5.30;;
79399;SDS011;68856;45.586;10.264;2023-09-07T03:44:29;7.90;;;5.18;;
79399;SDS011;68856;45.586;10.264;2023-09-07T03:46:55;5.78;;;5.18;;
79399;SDS011;68856;45.586;10.264;2023-09-07T03:49:21;5.82;;;5.22;;
79399;SDS011;68856;45.586;10.264;2023-09-07T03:51:48;6.07;;;5.22;;
79399;SDS011;68856;45.586;10.264;2023-09-07T03:54:14;5.35;;;4.85;;
79399;SDS011;68856;45.586;10.264;2023-09-07T03:56:40;5.18;;;4.68;;
79399;SDS011;68856;45.586;10.264;2023-09-07T03:59:06;5.63;;;5.05;;
79399;SDS011;68856;45.586;10.264;2023-09-07T04:01:33;5.88;;;4.68;;
79399;SDS011;68856;45.586;10.264;2023-09-07T04:03:59;5.60;;;5.03;;
79399;SDS011;68856;45.586;10.264;2023-09-07T04:06:25;5.63;;;4.60;;
79399;SDS011;68856;45.586;10.264;2023-09-07T04:08:51;5.95;;;5.35;;
79399;SDS011;68856;45.586;10.264;2023-09-07T04:11:18;9.50;;;5.20;;
79399;SDS011;68856;45.586;10.264;2023-09-07T04:13:44;5.38;;;4.88;;
79399;SDS011;68856;45.586;10.264;2023-09-07T04:16:10;5.90;;;4.82;;
79399;SDS011;68856;45.586;10.264;2023-09-07T04:18:36;5.93;;;5.03;;
79399;SDS011;68856;45.586;10.264;2023-09-07T04:21:06;11.60;;;5.22;;
79399;SDS011;68856;45.586;10.264;2023-09-07T04:23:33;10.98;;;5.43;;
79399;SDS011;68856;45.586;10.264;2023-09-07T04:26:10;6.63;;;5.38;;
79399;SDS011;68856;45.586;10.264;2023-09-07T04:28:37;6.65;;;5.10;;
79399;SDS011;68856;45.586;10.264;2023-09-07T04:31:04;6.65;;;5.50;;
79399;SDS011;68856;45.586;10.264;2023-09-07T04:33:31;6.95;;;5.40;;
79399;SDS011;68856;45.586;10.264;2023-09-07T04:36:10;8.48;;;5.25;;
79399;SDS011;68856;45.586;10.264;2023-09-07T04:38:38;6.68;;;5.15;;
79399;SDS011;68856;45.586;10.264;2023-09-07T04:41:05;7.88;;;4.25;;
79399;SDS011;68856;45.586;10.264;2023-09-07T04:43:32;8.25;;;5.03;;
79399;SDS011;68856;45.586;10.264;2023-09-07T04:45:58;8.93;;;5.25;;
79399;SDS011;68856;45.586;10.264;2023-09-07T04:48:25;6.85;;;4.70;;
79399;SDS011;68856;45.586;10.264;2023-09-07T04:50:58;6.75;;;5.07;;
79399;SDS011;68856;45.586;10.264;2023-09-07T04:53:24;11.52;;;5.20;;
79399;SDS011;68856;45.586;10.264;2023-09-07T04:55:53;5.72;;;4.70;;
79399;SDS011;68856;45.586;10.264;2023-09-07T04:58:19;5.47;;;4.97;;
79399;SDS011;68856;45.586;10.264;2023-09-07T05:00:45;5.65;;;4.72;;
79399;SDS011;68856;45.586;10.264;2023-09-07T05:03:12;5.68;;;4.78;;
79399;SDS011;68856;45.586;10.264;2023-09-07T05:05:38;5.22;;;4.57;;
79399;SDS011;68856;45.586;10.264;2023-09-07T05:08:06;5.63;;;4.88;;
79399;SDS011;68856;45.586;10.264;2023-09-07T05:10:33;8.00;;;4.30;;
79399;SDS011;68856;45.586;10.264;2023-09-07T05:12:59;7.80;;;4.97;;
79399;SDS011;68856;45.586;10.264;2023-09-07T05:15:26;7.10;;;4.85;;
79399;SDS011;68856;45.586;10.264;2023-09-07T05:17:52;5.82;;;4.53;;
79399;SDS011;68856;45.586;10.264;2023-09-07T05:20:19;8.95;;;4.93;;
79399;SDS011;68856;45.586;10.264;2023-09-07T05:22:46;5.22;;;4.50;;
79399;SDS011;68856;45.586;10.264;2023-09-07T05:25:13;5.40;;;4.20;;
79399;SDS011;68856;45.586;10.264;2023-09-07T05:27:39;5.50;;;4.13;;
79399;SDS011;68856;45.586;10.264;2023-09-07T05:30:05;5.15;;;4.57;;
79399;SDS011;68856;45.586;10.264;2023-09-07T05:32:32;6.55;;;4.50;;
79399;SDS011;68856;45.586;10.264;2023-09-07T05:34:58;4.50;;;4.07;;
79399;SDS011;68856;45.586;10.264;2023-09-07T05:37:25;5.80;;;4.35;;
79399;SDS011;68856;45.586;10.264;2023-09-07T05:39:51;10.30;;;4.72;;
79399;SDS011;68856;45.586;10.264;2023-09-07T05:42:17;7.05;;;5.05;;
79399;SDS011;68856;45.586;10.264;2023-09-07T05:44:44;8.38;;;5.05;;
79399;SDS011;68856;45.586;10.264;2023-09-07T05:47:10;9.45;;;5.80;;
79399;SDS011;68856;45.586;10.264;2023-09-07T05:49:36;8.48;;;5.30;;
79399;SDS011;68856;45.586;10.264;2023-09-07T05:52:03;6.47;;;4.63;;
79399;SDS011;68856;45.586;10.264;2023-09-07T05:54:29;7.43;;;5.20;;
79399;SDS011;68856;45.586;10.264;2023-09-07T05:56:55;6.22;;;5.28;;
79399;SDS011;68856;45.586;10.264;2023-09-07T05:59:22;5.68;;;5.03;;
79399;SDS011;68856;45.586;10.264;2023-09-07T06:01:48;5.68;;;4.28;;
79399;SDS011;68856;45.586;10.264;2023-09-07T06:04:14;7.38;;;4.60;;
79399;SDS011;68856;45.586;10.264;2023-09-07T06:06:41;7.25;;;5.00;;
79399;SDS011;68856;45.586;10.264;2023-09-07T06:09:07;5.93;;;4.43;;
79399;SDS011;68856;45.586;10.264;2023-09-07T06:11:33;7.80;;;4.90;;
79399;SDS011;68856;45.586;10.264;2023-09-07T06:14:00;6.05;;;4.75;;
79399;SDS011;68856;45.586;10.264;2023-09-07T06:16:26;5.70;;;4.63;;
79399;SDS011;68856;45.586;10.264;2023-09-07T06:18:52;6.82;;;5.05;;
79399;SDS011;68856;45.586;10.264;2023-09-07T06:21:18;8.82;;;5.53;;
79399;SDS011;68856;45.586;10.264;2023-09-07T06:23:44;5.90;;;4.70;;
79399;SDS011;68856;45.586;10.264;2023-09-07T06:26:12;8.38;;;5.38;;
79399;SDS011;68856;45.586;10.264;2023-09-07T06:28:39;6.97;;;5.15;;
79399;SDS011;68856;45.586;10.264;2023-09-07T06:31:05;6.15;;;5.53;;
79399;SDS011;68856;45.586;10.264;2023-09-07T06:33:31;8.85;;;5.88;;
79399;SDS011;68856;45.586;10.264;2023-09-07T06:35:59;6.32;;;5.38;;
79399;SDS011;68856;45.586;10.264;2023-09-07T06:38:27;8.30;;;5.63;;
79399;SDS011;68856;45.586;10.264;2023-09-07T06:40:53;7.78;;;5.82;;
79399;SDS011;68856;45.586;10.264;2023-09-07T06:43:20;8.02;;;6.05;;
79399;SDS011;68856;45.586;10.264;2023-09-07T06:45:47;10.07;;;5.97;;
79399;SDS011;68856;45.586;10.264;2023-09-07T06:48:13;7.10;;;5.88;;
79399;SDS011;68856;45.586;10.264;2023-09-07T06:50:39;8.13;;;6.00;;
79399;SDS011;68856;45.586;10.264;2023-09-07T06:53:05;9.75;;;5.68;;
79399;SDS011;68856;45.586;10.264;2023-09-07T06:55:32;8.38;;;5.40;;
79399;SDS011;68856;45.586;10.264;2023-09-07T06:57:58;12.10;;;5.45;;
79399;SDS011;68856;45.586;10.264;2023-09-07T07:00:26;9.60;;;5.22;;
79399;SDS011;68856;45.586;10.264;2023-09-07T07:02:52;8.75;;;5.05;;
79399;SDS011;68856;45.586;10.264;2023-09-07T07:05:18;8.55;;;6.70;;
79399;SDS011;68856;45.586;10.264;2023-09-07T07:07:47;11.23;;;5.68;;
79399;SDS011;68856;45.586;10.264;2023-09-07T07:10:13;7.97;;;5.97;;
79399;SDS011;68856;45.586;10.264;2023-09-07T07:12:39;7.07;;;4.93;;
79399;SDS011;68856;45.586;10.264;2023-09-07T07:15:06;6.38;;;5.07;;
79399;SDS011;68856;45.586;10.264;2023-09-07T07:17:33;7.13;;;5.03;;
79399;SDS011;68856;45.586;10.264;2023-09-07T07:19:59;5.63;;;4.32;;
79399;SDS011;68856;45.586;10.264;2023-09-07T07:22:25;7.18;;;4.20;;
79399;SDS011;68856;45.586;10.264;2023-09-07T07:24:51;8.82;;;4.53;;
79399;SDS011;68856;45.586;10.264;2023-09-07T07:27:18;7.15;;;3.90;;
79399;SDS011;68856;45.586;10.264;2023-09-07T07:29:44;4.35;;;3.72;;
79399;SDS011;68856;45.586;10.264;2023-09-07T07:32:10;5.15;;;4.75;;
79399;SDS011;68856;45.586;10.264;2023-09-07T07:34:37;5.72;;;3.90;;
79399;SDS011;68856;45.586;10.264;2023-09-07T07:37:03;5.45;;;3.78;;
79399;SDS011;68856;45.586;10.264;2023-09-07T07:39:29;7.32;;;3.95;;
79399;SDS011;68856;45.586;10.264;2023-09-07T07:41:55;6.50;;;4.07;;
79399;SDS011;68856;45.586;10.264;2023-09-07T07:44:22;6.82;;;4.10;;
79399;SDS011;68856;45.586;10.264;2023-09-07T07:46:48;9.25;;;4.65;;
79399;SDS011;68856;45.586;10.264;2023-09-07T07:49:14;6.07;;;5.07;;
79399;SDS011;68856;45.586;10.264;2023-09-07T07:51:41;5.38;;;4.47;;
79399;SDS011;68856;45.586;10.264;2023-09-07T07:54:07;5.55;;;4.75;;
79399;SDS011;68856;45.586;10.264;2023-09-07T07:56:33;8.35;;;3.70;;
79399;SDS011;68856;45.586;10.264;2023-09-07T07:58:59;4.40;;;4.00;;
79399;SDS011;68856;45.586;10.264;2023-09-07T08:01:27;6.28;;;4.20;;
79399;SDS011;68856;45.586;10.264;2023-09-07T08:03:54;4.78;;;3.83;;
79399;SDS011;68856;45.586;10.264;2023-09-07T08:06:20;7.32;;;4.00;;
79399;SDS011;68856;45.586;10.264;2023-09-07T08:08:47;6.28;;;4.32;;
79399;SDS011;68856;45.586;10.264;2023-09-07T08:11:13;5.00;;;4.22;;
79399;SDS011;68856;45.586;10.264;2023-09-07T08:13:39;6.70;;;4.13;;
79399;SDS011;68856;45.586;10.264;2023-09-07T08:16:06;5.30;;;4.40;;
79399;SDS011;68856;45.586;10.264;2023-09-07T08:18:33;4.47;;;4.00;;
79399;SDS011;68856;45.586;10.264;2023-09-07T08:21:00;6.38;;;4.10;;
79399;SDS011;68856;45.586;10.264;2023-09-07T08:23:26;5.05;;;4.18;;
79399;SDS011;68856;45.586;10.264;2023-09-07T08:25:52;6.30;;;4.15;;
79399;SDS011;68856;45.586;10.264;2023-09-07T08:28:19;4.10;;;3.70;;
79399;SDS011;68856;45.586;10.264;2023-09-07T08:30:48;4.03;;;3.63;;
79399;SDS011;68856;45.586;10.264;2023-09-07T08:33:19;5.22;;;3.35;;
79399;SDS011;68856;45.586;10.264;2023-09-07T08:35:51;5.40;;;3.40;;
79399;SDS011;68856;45.586;10.264;2023-09-07T08:38:18;4.75;;;3.50;;
79399;SDS011;68856;45.586;10.264;2023-09-07T08:40:47;5.80;;;3.97;;
79399;SDS011;68856;45.586;10.264;2023-09-07T08:43:14;5.05;;;3.22;;
79399;SDS011;68856;45.586;10.264;2023-09-07T08:45:42;3.35;;;3.00;;
79399;SDS011;68856;45.586;10.264;2023-09-07T08:48:13;3.58;;;2.67;;
79399;SDS011;68856;45.586;10.264;2023-09-07T08:50:42;3.05;;;2.85;;
79399;SDS011;68856;45.586;10.264;2023-09-07T08:53:17;3.67;;;2.97;;
79399;SDS011;68856;45.586;10.264;2023-09-07T08:58:11;4.38;;;3.00;;
79399;SDS011;68856;45.586;10.264;2023-09-07T09:00:38;3.13;;;2.90;;
79399;SDS011;68856;45.586;10.264;2023-09-07T09:03:08;5.07;;;2.97;;
79399;SDS011;68856;45.586;10.264;2023-09-07T09:05:35;3.85;;;2.97;;
79399;SDS011;68856;45.586;10.264;2023-09-07T09:08:05;3.35;;;2.85;;
79399;SDS011;68856;45.586;10.264;2023-09-07T09:10:32;5.07;;;3.20;;
79399;SDS011;68856;45.586;10.264;2023-09-07T09:12:58;2.95;;;2.75;;
79399;SDS011;68856;45.586;10.264;2023-09-07T09:15:25;3.10;;;2.60;;
79399;SDS011;68856;45.586;10.264;2023-09-07T09:17:54;3.72;;;2.47;;
79399;SDS011;68856;45.586;10.264;2023-09-07T09:20:45;3.97;;;3.00;;
79399;SDS011;68856;45.586;10.264;2023-09-07T09:23:11;4.10;;;3.00;;
79399;SDS011;68856;45.586;10.264;2023-09-07T09:25:40;3.97;;;3.20;;
79399;SDS011;68856;45.586;10.264;2023-09-07T09:28:08;3.55;;;2.92;;
79399;SDS011;68856;45.586;10.264;2023-09-07T09:30:35;4.03;;;2.92;;
79399;SDS011;68856;45.586;10.264;2023-09-07T09:33:02;3.60;;;2.88;;
79399;SDS011;68856;45.586;10.264;2023-09-07T09:35:31;6.68;;;3.20;;
79399;SDS011;68856;45.586;10.264;2023-09-07T09:38:00;4.25;;;2.90;;
79399;SDS011;68856;45.586;10.264;2023-09-07T09:40:30;3.47;;;3.17;;
79399;SDS011;68856;45.586;10.264;2023-09-07T09:42:59;5.00;;;3.30;;
79399;SDS011;68856;45.586;10.264;2023-09-07T09:45:28;5.82;;;3.90;;
79399;SDS011;68856;45.586;10.264;2023-09-07T09:47:55;5.15;;;3.78;;
79399;SDS011;68856;45.586;10.264;2023-09-07T09:50:23;4.05;;;3.65;;
79399;SDS011;68856;45.586;10.264;2023-09-07T09:52:50;3.50;;;3.20;;
79399;SDS011;68856;45.586;10.264;2023-09-07T09:55:20;4.35;;;3.75;;
79399;SDS011;68856;45.586;10.264;2023-09-07T09:57:48;5.38;;;3.80;;
79399;SDS011;68856;45.586;10.264;2023-09-07T10:00:15;3.97;;;3.15;;
79399;SDS011;68856;45.586;10.264;2023-09-07T10:03:05;4.47;;;3.67;;
79399;SDS011;68856;45.586;10.264;2023-09-07T10:05:51;5.22;;;3.70;;
79399;SDS011;68856;45.586;10.264;2023-09-07T10:08:18;4.60;;;3.58;;
79399;SDS011;68856;45.586;10.264;2023-09-07T10:10:48;3.65;;;3.35;;
79399;SDS011;68856;45.586;10.264;2023-09-07T10:13:30;6.03;;;3.47;;
79399;SDS011;68856;45.586;10.264;2023-09-07T10:16:07;4.53;;;3.30;;
79399;SDS011;68856;45.586;10.264;2023-09-07T10:18:35;4.68;;;3.50;;
79399;SDS011;68856;45.586;10.264;2023-09-07T10:21:03;7.38;;;3.83;;
79399;SDS011;68856;45.586;10.264;2023-09-07T10:26:02;5.28;;;3.70;;
79399;SDS011;68856;45.586;10.264;2023-09-07T10:28:30;4.82;;;3.53;;
79399;SDS011;68856;45.586;10.264;2023-09-07T10:30:57;5.53;;;3.60;;
79399;SDS011;68856;45.586;10.264;2023-09-07T10:33:25;8.00;;;4.30;;
79399;SDS011;68856;45.586;10.264;2023-09-07T10:35:52;4.65;;;4.07;;
79399;SDS011;68856;45.586;10.264;2023-09-07T10:38:18;4.35;;;4.00;;
79399;SDS011;68856;45.586;10.264;2023-09-07T10:40:44;9.63;;;4.90;;
79399;SDS011;68856;45.586;10.264;2023-09-07T10:43:12;4.55;;;4.15;;
79399;SDS011;68856;45.586;10.264;2023-09-07T10:45:38;5.78;;;3.97;;
79399;SDS011;68856;45.586;10.264;2023-09-07T10:50:43;9.25;;;4.32;;
79399;SDS011;68856;45.586;10.264;2023-09-07T10:53:11;4.68;;;3.97;;
79399;SDS011;68856;45.586;10.264;2023-09-07T10:55:41;4.57;;;4.18;;
79399;SDS011;68856;45.586;10.264;2023-09-07T10:58:11;6.30;;;4.37;;
79399;SDS011;68856;45.586;10.264;2023-09-07T11:00:37;5.78;;;4.50;;
79399;SDS011;68856;45.586;10.264;2023-09-07T11:03:09;6.88;;;3.80;;
79399;SDS011;68856;45.586;10.264;2023-09-07T11:05:36;5.85;;;3.92;;
79399;SDS011;68856;45.586;10.264;2023-09-07T11:08:04;6.18;;;4.53;;
79399;SDS011;68856;45.586;10.264;2023-09-07T11:10:32;4.88;;;3.65;;
79399;SDS011;68856;45.586;10.264;2023-09-07T11:13:05;5.45;;;4.00;;
79399;SDS011;68856;45.586;10.264;2023-09-07T11:15:32;7.32;;;4.85;;
79399;SDS011;68856;45.586;10.264;2023-09-07T11:18:03;5.32;;;4.25;;
79399;SDS011;68856;45.586;10.264;2023-09-07T11:20:32;6.80;;;3.90;;
79399;SDS011;68856;45.586;10.264;2023-09-07T11:22:59;7.10;;;4.05;;
79399;SDS011;68856;45.586;10.264;2023-09-07T11:25:26;6.18;;;3.70;;
79399;SDS011;68856;45.586;10.264;2023-09-07T11:27:52;6.68;;;3.85;;
79399;SDS011;68856;45.586;10.264;2023-09-07T11:30:20;6.50;;;3.85;;
79399;SDS011;68856;45.586;10.264;2023-09-07T11:32:47;6.88;;;3.70;;
79399;SDS011;68856;45.586;10.264;2023-09-07T11:35:13;4.18;;;3.38;;
79399;SDS011;68856;45.586;10.264;2023-09-07T11:37:39;7.55;;;4.35;;
79399;SDS011;68856;45.586;10.264;2023-09-07T11:40:06;7.38;;;4.57;;
79399;SDS011;68856;45.586;10.264;2023-09-07T11:42:37;5.72;;;3.80;;
79399;SDS011;68856;45.586;10.264;2023-09-07T11:45:05;6.53;;;4.10;;
79399;SDS011;68856;45.586;10.264;2023-09-07T11:47:32;4.55;;;3.65;;
79399;SDS011;68856;45.586;10.264;2023-09-07T11:50:00;7.75;;;3.92;;
79399;SDS011;68856;45.586;10.264;2023-09-07T11:52:26;5.45;;;3.85;;
79399;SDS011;68856;45.586;10.264;2023-09-07T11:54:52;5.53;;;4.13;;
79399;SDS011;68856;45.586;10.264;2023-09-07T11:57:19;5.28;;;3.63;;
79399;SDS011;68856;45.586;10.264;2023-09-07T11:59:45;5.20;;;3.78;;
79399;SDS011;68856;45.586;10.264;2023-09-07T12:02:11;4.68;;;3.60;;
79399;SDS011;68856;45.586;10.264;2023-09-07T12:04:40;4.50;;;3.55;;
79399;SDS011;68856;45.586;10.264;2023-09-07T12:07:06;6.28;;;4.25;;
79399;SDS011;68856;45.586;10.264;2023-09-07T12:09:32;6.72;;;4.03;;
79399;SDS011;68856;45.586;10.264;2023-09-07T12:11:58;3.92;;;3.60;;
79399;SDS011;68856;45.586;10.264;2023-09-07T12:14:25;8.30;;;3.95;;
79399;SDS011;68856;45.586;10.264;2023-09-07T12:16:51;7.63;;;4.10;;
79399;SDS011;68856;45.586;10.264;2023-09-07T12:19:17;8.77;;;3.70;;
79399;SDS011;68856;45.586;10.264;2023-09-07T12:21:43;4.10;;;3.70;;
79399;SDS011;68856;45.586;10.264;2023-09-07T12:24:10;4.35;;;3.45;;
79399;SDS011;68856;45.586;10.264;2023-09-07T12:26:37;3.90;;;3.55;;
79399;SDS011;68856;45.586;10.264;2023-09-07T12:29:03;7.45;;;5.05;;
79399;SDS011;68856;45.586;10.264;2023-09-07T12:31:31;5.25;;;3.58;;
79399;SDS011;68856;45.586;10.264;2023-09-07T12:33:57;7.75;;;3.97;;
79399;SDS011;68856;45.586;10.264;2023-09-07T12:36:23;6.80;;;3.65;;
79399;SDS011;68856;45.586;10.264;2023-09-07T12:38:53;5.07;;;3.60;;
79399;SDS011;68856;45.586;10.264;2023-09-07T12:41:19;5.38;;;3.65;;
79399;SDS011;68856;45.586;10.264;2023-09-07T12:43:46;6.13;;;3.78;;
79399;SDS011;68856;45.586;10.264;2023-09-07T12:46:12;5.38;;;3.53;;
79399;SDS011;68856;45.586;10.264;2023-09-07T12:48:38;5.88;;;3.75;;
79399;SDS011;68856;45.586;10.264;2023-09-07T12:51:05;6.47;;;3.47;;
79399;SDS011;68856;45.586;10.264;2023-09-07T12:53:31;5.68;;;3.60;;
79399;SDS011;68856;45.586;10.264;2023-09-07T12:55:57;6.75;;;3.20;;
79399;SDS011;68856;45.586;10.264;2023-09-07T12:58:23;7.28;;;3.40;;
79399;SDS011;68856;45.586;10.264;2023-09-07T13:00:50;7.03;;;3.42;;
79399;SDS011;68856;45.586;10.264;2023-09-07T13:03:17;7.95;;;3.30;;
79399;SDS011;68856;45.586;10.264;2023-09-07T13:05:44;7.28;;;4.07;;
79399;SDS011;68856;45.586;10.264;2023-09-07T13:08:10;4.78;;;3.42;;
79399;SDS011;68856;45.586;10.264;2023-09-07T13:10:37;7.18;;;3.70;;
79399;SDS011;68856;45.586;10.264;2023-09-07T13:13:04;7.03;;;3.38;;
79399;SDS011;68856;45.586;10.264;2023-09-07T13:15:30;6.05;;;3.60;;
79399;SDS011;68856;45.586;10.264;2023-09-07T13:17:57;5.93;;;3.42;;
79399;SDS011;68856;45.586;10.264;2023-09-07T13:20:23;6.45;;;3.40;;
79399;SDS011;68856;45.586;10.264;2023-09-07T13:22:49;4.65;;;3.60;;
79399;SDS011;68856;45.586;10.264;2023-09-07T13:25:15;7.97;;;4.00;;
79399;SDS011;68856;45.586;10.264;2023-09-07T13:27:42;4.70;;;3.45;;
79399;SDS011;68856;45.586;10.264;2023-09-07T13:30:08;5.07;;;3.55;;
79399;SDS011;68856;45.586;10.264;2023-09-07T13:32:37;9.75;;;3.72;;
79399;SDS011;68856;45.586;10.264;2023-09-07T13:35:03;5.20;;;3.38;;
79399;SDS011;68856;45.586;10.264;2023-09-07T13:37:30;5.72;;;3.35;;
79399;SDS011;68856;45.586;10.264;2023-09-07T13:39:56;7.43;;;3.50;;
79399;SDS011;68856;45.586;10.264;2023-09-07T13:42:25;9.38;;;3.60;;
79399;SDS011;68856;45.586;10.264;2023-09-07T13:44:52;8.90;;;4.27;;
79399;SDS011;68856;45.586;10.264;2023-09-07T13:47:18;5.72;;;3.22;;
79399;SDS011;68856;45.586;10.264;2023-09-07T13:49:44;9.85;;;3.55;;
79399;SDS011;68856;45.586;10.264;2023-09-07T13:52:11;6.55;;;3.55;;
79399;SDS011;68856;45.586;10.264;2023-09-07T13:54:38;10.52;;;3.70;;
79399;SDS011;68856;45.586;10.264;2023-09-07T13:57:04;4.40;;;3.53;;
79399;SDS011;68856;45.586;10.264;2023-09-07T13:59:31;4.22;;;3.45;;
79399;SDS011;68856;45.586;10.264;2023-09-07T14:01:59;5.80;;;3.85;;
79399;SDS011;68856;45.586;10.264;2023-09-07T14:04:26;4.70;;;3.40;;
79399;SDS011;68856;45.586;10.264;2023-09-07T14:06:53;15.68;;;3.83;;
79399;SDS011;68856;45.586;10.264;2023-09-07T14:09:20;10.38;;;3.78;;
79399;SDS011;68856;45.586;10.264;2023-09-07T14:11:48;5.40;;;3.47;;
79399;SDS011;68856;45.586;10.264;2023-09-07T14:14:14;4.30;;;3.10;;
79399;SDS011;68856;45.586;10.264;2023-09-07T14:16:41;4.32;;;3.35;;
79399;SDS011;68856;45.586;10.264;2023-09-07T14:19:08;5.35;;;3.45;;
79399;SDS011;68856;45.586;10.264;2023-09-07T14:21:34;7.75;;;3.42;;
79399;SDS011;68856;45.586;10.264;2023-09-07T14:24:00;5.57;;;3.42;;
79399;SDS011;68856;45.586;10.264;2023-09-07T14:26:29;12.90;;;4.07;;
79399;SDS011;68856;45.586;10.264;2023-09-07T14:28:55;8.27;;;4.05;;
79399;SDS011;68856;45.586;10.264;2023-09-07T14:31:21;15.35;;;4.60;;
79399;SDS011;68856;45.586;10.264;2023-09-07T14:33:47;6.20;;;3.72;;
79399;SDS011;68856;45.586;10.264;2023-09-07T14:36:14;8.70;;;3.80;;
79399;SDS011;68856;45.586;10.264;2023-09-07T14:38:41;3.67;;;3.28;;
79399;SDS011;68856;45.586;10.264;2023-09-07T14:41:09;7.18;;;3.28;;
79399;SDS011;68856;45.586;10.264;2023-09-07T14:43:47;5.30;;;3.45;;